Oostburg, Wisconsin
Current Conditions -  °F | °C
As of 5:21 AM on Saturday 25 Oct 2014 (Local Time) from KSBM Reporting Station
Haze Haze  
Wind Chill: 13°   Ceiling: 1100
Heat Index: 13°   Visibility: 6mi
Dew Point: 11°   Wind: 9mph
Humidity: 89%   Direction: 260°W
Pressure: 29.83"   Gusts: NA
Location:  43.62°N, 87.79°W
Report Text: KSBM 251021Z AUTO 26008KT 6SM BR OVC011 13/11 A2983 RMK AO2 T01280111
Loading
Personal Weather Stations






























Interactive Weather Map
Tropical Storm Tracking
New forecast layout! Learn more

10-Day Weather Forecast

Advertisements
Track Severe Weather on mobile